Time;durP1;ratioP1;P1;durP2;ratioP2;P2;SDS_P1;SDS_P2;PMS_P1;PMS_P2;Temp;Humidity;BMP_temperature;BMP_pressure;BME280_temperature;BME280_humidity;BME280_pressure;Samples;Min_cycle;Max_cycle;Signal;HPM_P1;HPM_P2
2023/11/06 00:01:23;;;;;;;1.00;0.60;;;21.20;56.60;;;;;;5019452;28;20025;-70
2023/11/06 00:03:50;;;;;;;1.83;0.63;;;21.20;56.60;;;;;;5020829;28;20084;-70
2023/11/06 00:06:16;;;;;;;1.83;0.68;;;21.20;56.60;;;;;;5019707;28;20072;-70
2023/11/06 00:08:41;;;;;;;1.20;0.63;;;21.20;56.60;;;;;;5021700;28;20025;-70
2023/11/06 00:11:08;;;;;;;1.38;0.60;;;21.20;56.60;;;;;;5035371;28;20025;-70
2023/11/06 00:13:34;;;;;;;1.00;0.60;;;21.20;56.60;;;;;;5019288;28;20018;-70
2023/11/06 00:15:59;;;;;;;1.08;0.60;;;21.20;56.60;;;;;;5021725;28;20025;-70
2023/11/06 00:18:25;;;;;;;0.98;0.60;;;21.20;56.60;;;;;;5021628;28;20367;-70
2023/11/06 00:20:51;;;;;;;1.10;0.60;;;21.20;56.60;;;;;;5020913;28;20026;-70
2023/11/06 00:23:16;;;;;;;0.95;0.60;;;21.20;56.60;;;;;;5020963;28;20519;-70
2023/11/06 00:25:42;;;;;;;1.75;0.70;;;21.20;56.60;;;;;;5018358;28;20465;-70
2023/11/06 00:28:07;;;;;;;1.58;0.60;;;21.20;56.60;;;;;;5020901;28;20033;-67
2023/11/06 00:30:33;;;;;;;1.42;0.60;;;21.20;56.60;;;;;;5020017;28;20129;-68
2023/11/06 00:32:58;;;;;;;0.85;0.55;;;21.10;56.50;;;;;;5034172;28;20030;-66
2023/11/06 00:35:25;;;;;;;1.35;0.70;;;21.10;56.50;;;;;;5020238;28;20085;-67
2023/11/06 00:37:51;;;;;;;1.80;0.80;;;21.10;56.50;;;;;;5021319;28;20028;-67
2023/11/06 00:40:17;;;;;;;1.50;0.70;;;21.10;56.50;;;;;;5020798;28;20026;-67
2023/11/06 00:42:43;;;;;;;1.02;0.70;;;21.10;56.60;;;;;;5019324;28;20055;-69
2023/11/06 00:45:09;;;;;;;1.30;0.80;;;21.10;56.60;;;;;;5020751;28;20034;-68
2023/11/06 00:47:35;;;;;;;1.38;0.70;;;21.10;56.60;;;;;;5019902;28;20084;-68
2023/11/06 00:50:00;;;;;;;1.15;0.60;;;21.10;56.60;;;;;;5020555;28;20038;-67
2023/11/06 00:52:26;;;;;;;1.00;0.60;;;21.10;56.60;;;;;;5021385;28;20555;-67
2023/11/06 00:54:52;;;;;;;1.35;0.70;;;21.10;56.60;;;;;;5019963;28;20338;-67
2023/11/06 00:57:17;;;;;;;1.45;0.65;;;21.10;56.60;;;;;;5019066;28;20030;-69
2023/11/06 00:59:43;;;;;;;1.10;0.65;;;21.10;56.60;;;;;;5017342;28;20033;-70
2023/11/06 01:02:09;;;;;;;1.35;0.63;;;21.10;56.60;;;;;;5018438;28;20034;-70
2023/11/06 01:04:34;;;;;;;0.80;0.60;;;21.10;56.60;;;;;;5020218;28;20034;-70
2023/11/06 01:07:00;;;;;;;2.95;0.90;;;21.00;56.50;;;;;;5019069;28;20111;-70
2023/11/06 01:09:26;;;;;;;0.90;0.60;;;21.00;56.60;;;;;;5020086;28;20065;-70
2023/11/06 01:11:52;;;;;;;1.08;0.60;;;21.00;56.60;;;;;;5017897;28;20037;-69
2023/11/06 01:14:17;;;;;;;2.45;0.80;;;21.00;56.60;;;;;;5002759;28;20044;-69
2023/11/06 01:16:43;;;;;;;1.50;0.70;;;21.00;56.60;;;;;;5017433;28;20121;-69
2023/11/06 01:19:09;;;;;;;1.10;0.70;;;21.00;56.60;;;;;;5019973;28;20034;-69
2023/11/06 01:21:34;;;;;;;0.85;0.50;;;21.00;56.60;;;;;;5020093;28;20049;-69
2023/11/06 01:24:00;;;;;;;0.90;0.63;;;21.00;56.60;;;;;;5001902;28;20051;-69
2023/11/06 01:26:25;;;;;;;1.17;0.60;;;21.00;56.60;;;;;;5016977;28;20052;-69
2023/11/06 01:28:51;;;;;;;0.70;0.47;;;21.00;56.60;;;;;;5018914;28;20061;-70
2023/11/06 01:31:17;;;;;;;1.13;0.70;;;21.00;56.50;;;;;;5020466;28;20037;-70
2023/11/06 01:33:43;;;;;;;1.58;0.63;;;21.00;56.60;;;;;;5018616;28;20556;-69
2023/11/06 01:36:09;;;;;;;0.73;0.60;;;21.00;56.50;;;;;;5019752;28;20116;-69
2023/11/06 01:38:36;;;;;;;0.93;0.60;;;21.00;56.50;;;;;;5018906;28;20548;-72
2023/11/06 01:41:03;;;;;;;1.58;0.80;;;21.00;56.60;;;;;;5019689;28;20525;-72
2023/11/06 01:43:28;;;;;;;1.00;0.60;;;20.90;56.50;;;;;;5016639;28;20025;-72
2023/11/06 01:45:54;;;;;;;0.77;0.52;;;21.00;57.10;;;;;;5001339;28;20041;-72
2023/11/06 01:48:22;;;;;;;1.13;0.70;;;20.90;56.50;;;;;;5019270;28;20025;-72
2023/11/06 01:50:48;;;;;;;0.85;0.50;;;20.90;56.50;;;;;;5015400;28;20025;-72
2023/11/06 01:53:16;;;;;;;1.13;0.60;;;20.90;56.50;;;;;;5015831;28;20371;-72
2023/11/06 01:55:42;;;;;;;1.30;0.73;;;20.90;56.60;;;;;;5021393;28;20021;-72
2023/11/06 01:58:11;;;;;;;1.08;0.57;;;20.90;56.50;;;;;;5018935;28;20072;-71
2023/11/06 02:00:42;;;;;;;0.50;0.50;;;20.90;56.50;;;;;;5018109;28;20365;-72
2023/11/06 02:03:08;;;;;;;0.90;0.50;;;20.90;56.40;;;;;;5032654;28;20029;-72
2023/11/06 02:05:36;;;;;;;0.77;0.55;;;20.90;56.40;;;;;;5020283;28;20025;-72
2023/11/06 02:08:02;;;;;;;1.15;0.60;;;20.90;56.50;;;;;;5019190;28;20026;-70
2023/11/06 02:10:29;;;;;;;0.88;0.60;;;20.90;56.40;;;;;;5019805;28;20397;-71
2023/11/06 02:12:54;;;;;;;1.15;0.60;;;20.90;56.50;;;;;;5016780;28;20098;-70
2023/11/06 02:15:20;;;;;;;1.60;0.70;;;20.80;56.40;;;;;;5019451;28;20426;-70
2023/11/06 02:17:45;;;;;;;0.80;0.50;;;20.80;56.40;;;;;;5018895;28;20489;-70
2023/11/06 02:20:12;;;;;;;0.68;0.43;;;20.80;56.40;;;;;;5019515;28;20030;-69
2023/11/06 02:22:43;;;;;;;0.80;0.60;;;20.80;56.40;;;;;;5017287;28;20034;-69
2023/11/06 02:25:09;;;;;;;1.50;0.60;;;20.80;56.40;;;;;;5002079;28;20037;-69
2023/11/06 02:27:35;;;;;;;1.33;0.70;;;20.80;56.40;;;;;;5018135;28;20497;-69
2023/11/06 02:30:02;;;;;;;1.00;0.50;;;20.80;56.40;;;;;;5018536;28;20022;-69
2023/11/06 02:32:28;;;;;;;0.77;0.50;;;20.80;56.40;;;;;;5016631;28;20370;-69
2023/11/06 02:34:53;;;;;;;0.63;0.50;;;20.80;56.40;;;;;;5018536;28;20374;-69
2023/11/06 02:37:19;;;;;;;0.57;0.45;;;20.80;56.40;;;;;;5018035;28;20022;-69
2023/11/06 02:39:45;;;;;;;1.10;0.60;;;20.80;56.40;;;;;;5019423;28;20037;-69
2023/11/06 02:42:10;;;;;;;0.82;0.60;;;20.70;56.40;;;;;;5016717;28;20104;-69
2023/11/06 02:44:36;;;;;;;0.82;0.50;;;20.80;56.90;;;;;;5017980;28;20055;-69
2023/11/06 02:47:02;;;;;;;1.05;0.50;;;20.70;56.40;;;;;;5000797;28;20026;-69
2023/11/06 02:49:28;;;;;;;1.42;0.90;;;20.70;56.40;;;;;;5014913;28;20018;-72
2023/11/06 02:51:54;;;;;;;0.95;0.60;;;20.70;56.40;;;;;;5018392;28;20025;-73
2023/11/06 02:54:24;;;;;;;0.57;0.40;;;20.70;56.40;;;;;;5018417;28;20089;-72
2023/11/06 02:56:50;;;;;;;0.73;0.50;;;20.70;56.40;;;;;;5017117;28;20382;-71
2023/11/06 02:59:15;;;;;;;1.50;0.70;;;20.70;56.40;;;;;;5019354;28;20139;-72
2023/11/06 03:01:42;;;;;;;0.60;0.50;;;20.70;56.40;;;;;;5019176;28;20025;-72
2023/11/06 03:04:12;;;;;;;0.75;0.52;;;20.70;56.40;;;;;;5018249;28;20034;-72
2023/11/06 03:06:38;;;;;;;;;;;20.70;56.40;;;;;;5015351;28;20496;-72
2023/11/06 03:09:05;;;;;;;0.93;0.50;;;20.70;56.50;;;;;;5019480;28;19909;-72
2023/11/06 03:11:31;;;;;;;0.60;0.40;;;20.70;56.40;;;;;;5018038;28;20359;-72
2023/11/06 03:13:56;;;;;;;0.73;0.40;;;20.70;56.40;;;;;;5016170;28;20109;-72
2023/11/06 03:16:22;;;;;;;0.52;0.50;;;20.70;56.50;;;;;;5019641;28;20450;-72
2023/11/06 03:18:48;;;;;;;0.77;0.57;;;20.70;56.50;;;;;;5018833;28;20121;-72
2023/11/06 03:21:13;;;;;;;0.43;0.43;;;20.70;56.50;;;;;;5017378;28;20033;-72
2023/11/06 03:23:39;;;;;;;1.00;0.50;;;20.60;56.40;;;;;;5017736;28;20184;-72
2023/11/06 03:26:05;;;;;;;0.85;0.50;;;20.70;56.50;;;;;;5018364;28;20438;-72
2023/11/06 03:28:31;;;;;;;1.10;0.52;;;20.60;56.50;;;;;;5015899;28;20026;-70
2023/11/06 03:30:58;;;;;;;0.75;0.50;;;20.60;56.40;;;;;;5001320;28;20064;-70
2023/11/06 03:33:23;;;;;;;0.98;0.50;;;20.60;56.50;;;;;;5014601;28;20068;-70
2023/11/06 03:35:50;;;;;;;0.90;0.47;;;20.60;56.50;;;;;;5017825;28;20356;-70
2023/11/06 03:38:16;;;;;;;1.83;0.70;;;20.60;56.40;;;;;;5017893;28;20125;-70
2023/11/06 03:40:42;;;;;;;0.93;0.50;;;20.60;56.50;;;;;;5017552;28;20871;-70
2023/11/06 03:43:07;;;;;;;0.70;0.55;;;20.60;56.50;;;;;;5013807;28;20121;-70
2023/11/06 03:45:33;;;;;;;1.02;0.47;;;20.60;56.50;;;;;;5017570;28;20520;-70
2023/11/06 03:47:59;;;;;;;1.55;0.60;;;20.60;56.50;;;;;;5017288;28;20084;-70
2023/11/06 03:50:25;;;;;;;1.23;0.57;;;20.60;56.50;;;;;;5022658;28;20049;-70
2023/11/06 03:52:50;;;;;;;0.45;0.40;;;20.60;56.50;;;;;;5022356;28;20115;-70
2023/11/06 03:55:16;;;;;;;0.57;0.40;;;20.60;56.50;;;;;;5022614;28;20062;-70
2023/11/06 03:57:42;;;;;;;0.85;0.60;;;20.50;56.40;;;;;;5019201;28;20030;-70
2023/11/06 04:00:10;;;;;;;0.57;0.50;;;20.50;56.40;;;;;;5022291;28;20034;-67
2023/11/06 04:02:36;;;;;;;0.85;0.50;;;20.50;56.40;;;;;;5035930;28;20061;-67
2023/11/06 04:05:02;;;;;;;0.60;0.40;;;20.50;56.40;;;;;;5020642;28;20063;-66
2023/11/06 04:07:28;;;;;;;0.60;0.40;;;20.50;56.40;;;;;;5020364;28;20041;-68
2023/11/06 04:09:55;;;;;;;0.70;0.50;;;20.50;56.90;;;;;;5021194;28;20029;-67
2023/11/06 04:12:22;;;;;;;1.50;0.52;;;20.50;56.40;;;;;;5019567;28;20052;-67
2023/11/06 04:14:53;;;;;;;0.40;0.40;;;20.50;56.40;;;;;;5021524;28;20032;-68
2023/11/06 04:17:19;;;;;;;0.80;0.50;;;20.50;56.40;;;;;;5018871;28;20041;-67
2023/11/06 04:19:45;;;;;;;0.47;0.30;;;20.50;56.40;;;;;;5021004;28;20399;-67
2023/11/06 04:22:10;;;;;;;0.98;0.60;;;20.50;56.40;;;;;;5020157;28;20112;-68
2023/11/06 04:24:36;;;;;;;0.98;0.60;;;20.50;56.40;;;;;;5019441;28;20435;-68
2023/11/06 04:27:02;;;;;;;0.65;0.40;;;20.50;56.40;;;;;;5019421;28;20833;-67
2023/11/06 04:29:27;;;;;;;0.50;0.40;;;20.50;56.40;;;;;;5019638;28;20117;-71
2023/11/06 04:31:53;;;;;;;0.45;0.45;;;20.50;56.50;;;;;;5020687;28;20528;-71
2023/11/06 04:34:18;;;;;;;0.88;0.50;;;20.40;56.30;;;;;;5018282;28;20018;-72
2023/11/06 04:36:44;;;;;;;0.55;0.50;;;20.50;56.40;;;;;;5021796;28;20040;-72
2023/11/06 04:39:10;;;;;;;1.20;0.60;;;20.50;56.40;;;;;;5036175;28;20037;-72
2023/11/06 04:41:37;;;;;;;0.75;0.50;;;20.50;56.40;;;;;;5022190;28;20076;-72
2023/11/06 04:44:05;;;;;;;0.40;0.40;;;20.40;56.40;;;;;;5019299;28;20029;-72
2023/11/06 04:46:31;;;;;;;0.52;0.50;;;20.40;56.40;;;;;;5020452;28;20076;-71
2023/11/06 04:48:56;;;;;;;0.60;0.40;;;20.40;56.40;;;;;;5019388;28;20444;-72
2023/11/06 04:51:22;;;;;;;0.30;0.30;;;20.40;56.40;;;;;;5021115;28;20033;-72
2023/11/06 04:53:48;;;;;;;0.57;0.50;;;20.40;56.40;;;;;;5015156;28;20465;-72
2023/11/06 04:56:13;;;;;;;0.55;0.40;;;20.40;56.40;;;;;;5015361;28;20057;-72
2023/11/06 04:58:39;;;;;;;0.88;0.50;;;20.40;56.40;;;;;;5019380;28;20026;-71
2023/11/06 05:01:08;;;;;;;0.65;0.50;;;20.40;56.40;;;;;;5018825;28;20546;-72
2023/11/06 05:03:34;;;;;;;0.63;0.50;;;20.40;56.40;;;;;;5018554;28;20034;-72
2023/11/06 05:06:01;;;;;;;0.82;0.50;;;20.40;56.40;;;;;;5020012;28;20058;-72
2023/11/06 05:08:29;;;;;;;0.80;0.50;;;20.40;56.40;;;;;;5019324;28;20100;-72
2023/11/06 05:10:55;;;;;;;0.70;0.50;;;20.40;56.40;;;;;;5019527;28;20025;-72
2023/11/06 05:13:22;;;;;;;1.00;0.50;;;20.40;56.40;;;;;;5017902;28;20417;-72
2023/11/06 05:15:48;;;;;;;0.52;0.50;;;20.40;56.40;;;;;;5018127;28;20038;-72
2023/11/06 05:18:14;;;;;;;0.47;0.45;;;20.40;56.30;;;;;;5002713;28;20026;-72
2023/11/06 05:20:42;;;;;;;0.77;0.40;;;20.40;56.30;;;;;;5018358;28;20489;-71
2023/11/06 05:23:08;;;;;;;0.47;0.47;;;20.40;56.80;;;;;;5018684;28;20075;-72
2023/11/06 05:25:35;;;;;;;0.47;0.40;;;20.40;56.30;;;;;;5020250;28;20033;-71
2023/11/06 05:28:01;;;;;;;0.47;0.40;;;20.40;56.80;;;;;;5018034;28;20497;-72
2023/11/06 05:30:26;;;;;;;0.70;0.50;;;20.40;56.80;;;;;;5019131;28;20065;-72
2023/11/06 05:32:53;;;;;;;0.73;0.32;;;20.40;56.30;;;;;;5019093;28;20390;-72
2023/11/06 05:35:19;;;;;;;0.95;0.50;;;20.30;56.30;;;;;;5017603;28;20025;-72
2023/11/06 05:37:46;;;;;;;0.88;0.50;;;20.40;56.30;;;;;;5019025;28;20046;-71
2023/11/06 05:40:12;;;;;;;0.32;0.30;;;20.40;56.30;;;;;;5019068;28;20021;-67
2023/11/06 05:42:39;;;;;;;0.40;0.40;;;20.30;56.30;;;;;;5019708;28;20072;-68
2023/11/06 05:45:06;;;;;;;0.93;0.40;;;20.30;56.30;;;;;;5016749;28;20442;-67
2023/11/06 05:47:32;;;;;;;0.50;0.40;;;20.40;56.30;;;;;;5019179;28;20423;-67
2023/11/06 05:49:58;;;;;;;0.52;0.40;;;20.30;56.30;;;;;;5017285;28;20014;-70
2023/11/06 05:52:24;;;;;;;0.50;0.43;;;20.30;56.30;;;;;;5021584;28;20438;-70
2023/11/06 05:54:50;;;;;;;0.75;0.43;;;20.30;56.30;;;;;;5018699;28;20506;-70
2023/11/06 05:57:15;;;;;;;0.43;0.40;;;20.30;56.40;;;;;;5019660;28;20131;-70
2023/11/06 05:59:41;;;;;;;0.80;0.40;;;20.30;56.40;;;;;;5018824;28;20072;-70
2023/11/06 06:02:10;;;;;;;0.40;0.40;;;20.30;56.40;;;;;;5019864;28;20041;-70
2023/11/06 06:04:38;;;;;;;0.90;0.50;;;20.30;56.40;;;;;;5001381;28;20513;-70
2023/11/06 06:07:05;;;;;;;0.77;0.50;;;20.30;56.90;;;;;;5022446;28;20500;-71
2023/11/06 06:09:32;;;;;;;1.65;0.40;;;20.30;56.80;;;;;;5015516;28;20030;-73
2023/11/06 06:11:58;;;;;;;0.43;0.35;;;20.40;57.50;;;;;;5014535;28;20455;-70
2023/11/06 06:14:24;;;;;;;1.13;0.50;;;20.50;57.80;;;;;;5018442;28;20014;-70
2023/11/06 06:16:49;;;;;;;0.32;0.32;;;20.70;57.80;;;;;;5021367;28;20140;-71
2023/11/06 06:19:17;;;;;;;0.55;0.30;;;20.90;57.70;;;;;;5019439;28;20025;-71
2023/11/06 06:21:46;;;;;;;0.43;0.30;;;21.00;58.20;;;;;;5018368;28;20496;-71
2023/11/06 06:24:12;;;;;;;0.20;0.20;;;21.10;57.90;;;;;;5018136;28;20493;-70
2023/11/06 06:26:37;;;;;;;0.40;0.38;;;21.10;57.40;;;;;;5017232;28;20040;-70
2023/11/06 06:29:04;;;;;;;0.40;0.40;;;21.10;57.80;;;;;;5017921;28;20021;-72
2023/11/06 06:31:30;;;;;;;0.50;0.40;;;21.10;57.30;;;;;;5019547;28;20022;-72
2023/11/06 06:33:56;;;;;;;0.40;0.40;;;21.10;57.40;;;;;;5020256;28;20389;-69
2023/11/06 06:36:23;;;;;;;0.22;0.22;;;21.10;57.50;;;;;;5016891;28;20037;-72
2023/11/06 06:38:49;;;;;;;0.35;0.35;;;21.10;57.50;;;;;;5017418;28;20034;-70
2023/11/06 06:41:15;;;;;;;0.73;0.40;;;21.10;57.60;;;;;;5020264;28;20051;-68
2023/11/06 06:43:41;;;;;;;0.52;0.45;;;21.10;57.60;;;;;;5015977;28;20042;-70
2023/11/06 06:46:06;;;;;;;0.85;0.50;;;21.20;57.70;;;;;;5020314;28;20951;-70
2023/11/06 06:48:32;;;;;;;0.63;0.40;;;21.20;57.80;;;;;;5019357;28;20637;-70
2023/11/06 06:50:58;;;;;;;0.40;0.40;;;21.20;57.90;;;;;;5033656;28;20037;-71
2023/11/06 06:53:24;;;;;;;0.52;0.30;;;21.20;57.80;;;;;;5016737;28;20080;-70
2023/11/06 06:55:50;;;;;;;0.40;0.30;;;21.30;57.90;;;;;;5019733;28;20037;-70
2023/11/06 06:58:16;;;;;;;0.40;0.40;;;21.30;57.90;;;;;;5019251;28;20385;-73
2023/11/06 07:00:43;;;;;;;0.45;0.45;;;21.30;57.90;;;;;;5015813;28;20116;-71
2023/11/06 07:03:09;;;;;;;0.45;0.35;;;21.30;58.00;;;;;;5019022;28;20142;-68
2023/11/06 07:05:35;;;;;;;0.73;0.40;;;21.30;58.00;;;;;;5019592;28;20410;-69
2023/11/06 07:08:01;;;;;;;2.28;0.60;;;21.40;58.40;;;;;;5016622;28;20024;-71
2023/11/06 07:10:27;;;;;;;1.23;0.50;;;21.40;58.50;;;;;;5017769;28;20022;-70
2023/11/06 07:12:55;;;;;;;1.77;0.60;;;21.40;58.50;;;;;;5033636;28;20083;-73
2023/11/06 07:15:25;;;;;;;0.75;0.45;;;21.50;58.60;;;;;;5016645;28;20192;-73
2023/11/06 07:17:50;;;;;;;0.50;0.40;;;21.50;59.00;;;;;;5017529;28;20034;-72
2023/11/06 07:20:17;;;;;;;1.00;0.40;;;21.50;58.80;;;;;;5018819;28;20351;-73
2023/11/06 07:22:42;;;;;;;0.50;0.45;;;21.60;59.20;;;;;;5017618;28;20037;-70
2023/11/06 07:25:09;;;;;;;1.05;0.40;;;21.60;59.20;;;;;;5020923;28;20489;-73
2023/11/06 07:27:35;;;;;;;0.70;0.50;;;21.60;59.20;;;;;;5023304;28;20072;-76
2023/11/06 07:30:01;;;;;;;0.45;0.38;;;21.70;59.40;;;;;;5020609;28;20563;-74
2023/11/06 07:32:26;;;;;;;0.77;0.50;;;21.70;59.40;;;;;;5020877;28;20079;-71
2023/11/06 07:34:52;;;;;;;1.27;0.50;;;21.70;59.40;;;;;;5022241;28;20056;-74
2023/11/06 07:37:17;;;;;;;1.27;0.50;;;21.70;59.60;;;;;;5020126;28;20034;-72
2023/11/06 07:39:43;;;;;;;0.65;0.43;;;21.80;59.70;;;;;;5022889;28;20501;-72
2023/11/06 07:42:12;;;;;;;1.10;0.60;;;21.80;59.80;;;;;;5022169;28;20036;-72
2023/11/06 07:44:41;;;;;;;0.65;0.50;;;21.80;60.00;;;;;;5019987;28;20024;-73
2023/11/06 07:47:07;;;;;;;1.33;0.40;;;21.90;60.20;;;;;;5022940;28;20466;-74
2023/11/06 07:49:33;;;;;;;0.75;0.47;;;21.90;60.20;;;;;;5021568;28;20260;-72
2023/11/06 07:52:01;;;;;;;1.08;0.50;;;21.90;60.20;;;;;;5021664;28;20446;-75
2023/11/06 07:54:27;;;;;;;2.58;0.63;;;21.90;60.40;;;;;;5022731;28;20490;-73
2023/11/06 07:56:53;;;;;;;1.70;0.50;;;22.00;60.40;;;;;;5020326;28;20044;-72
2023/11/06 07:59:18;;;;;;;1.77;0.50;;;22.00;61.00;;;;;;5018101;28;20422;-73
2023/11/06 08:01:44;;;;;;;2.15;0.40;;;22.10;60.50;;;;;;5020282;28;20029;-73
2023/11/06 08:04:10;;;;;;;0.68;0.47;;;22.10;60.60;;;;;;5022985;28;20437;-73
2023/11/06 08:06:35;;;;;;;1.58;0.47;;;22.10;60.70;;;;;;5017669;28;20026;-74
2023/11/06 08:09:01;;;;;;;1.75;0.47;;;22.10;61.00;;;;;;5020302;28;20018;-74
2023/11/06 08:11:26;;;;;;;1.50;0.50;;;22.20;60.80;;;;;;5021409;28;20032;-72
2023/11/06 08:13:52;;;;;;;1.42;0.50;;;22.20;60.80;;;;;;5022169;28;20033;-72
2023/11/06 08:16:18;;;;;;;1.88;0.40;;;22.20;60.80;;;;;;5017767;28;20061;-73
2023/11/06 08:18:44;;;;;;;0.98;0.40;;;22.30;60.90;;;;;;5023606;28;20021;-75
2023/11/06 08:21:10;;;;;;;1.48;0.60;;;22.30;60.80;;;;;;5018740;28;20450;-71
2023/11/06 08:23:36;;;;;;;1.45;0.50;;;22.30;60.80;;;;;;5038225;28;20033;-73
2023/11/06 08:26:04;;;;;;;2.10;0.50;;;22.40;60.80;;;;;;5004824;28;20347;-70
2023/11/06 08:28:30;;;;;;;3.17;0.70;;;22.40;61.00;;;;;;5016309;28;20409;-72
2023/11/06 08:30:55;;;;;;;2.45;0.60;;;22.50;61.20;;;;;;5020007;28;20038;-72
2023/11/06 08:33:21;;;;;;;1.38;0.60;;;22.40;61.40;;;;;;5019193;28;20022;-72
2023/11/06 08:35:46;;;;;;;2.42;0.52;;;22.50;61.60;;;;;;5017786;28;20107;-72
2023/11/06 08:38:13;;;;;;;1.67;0.50;;;22.50;61.50;;;;;;5025103;28;20060;-71
2023/11/06 08:40:38;;;;;;;1.48;0.40;;;22.60;61.40;;;;;;5036680;28;20045;-70
2023/11/06 08:43:04;;;;;;;2.13;0.47;;;22.60;61.50;;;;;;5020238;28;20100;-69
2023/11/06 08:45:30;;;;;;;2.80;0.60;;;22.60;61.50;;;;;;5019575;28;20111;-70
2023/11/06 08:47:55;;;;;;;1.13;0.50;;;22.60;61.50;;;;;;5019530;28;20445;-70
2023/11/06 08:50:21;;;;;;;1.67;0.50;;;22.70;61.40;;;;;;5019988;28;20029;-70
2023/11/06 08:52:47;;;;;;;3.47;0.60;;;22.70;61.30;;;;;;5003236;28;20033;-68
2023/11/06 08:55:13;;;;;;;0.60;0.43;;;22.70;61.30;;;;;;5016898;28;20819;-68
2023/11/06 08:57:39;;;;;;;1.90;0.50;;;22.70;61.10;;;;;;5018838;28;20434;-71
2023/11/06 09:00:08;;;;;;;1.95;0.40;;;22.70;61.00;;;;;;5017302;28;20030;-69
2023/11/06 09:02:35;;;;;;;0.95;0.50;;;22.70;60.90;;;;;;5002357;28;20990;-69
2023/11/06 09:05:00;;;;;;;2.42;0.65;;;22.80;60.80;;;;;;5020311;28;20537;-69
2023/11/06 09:07:27;;;;;;;1.70;0.60;;;22.80;60.70;;;;;;5019640;28;20101;-70
2023/11/06 09:09:53;;;;;;;2.55;0.60;;;22.90;60.80;;;;;;5022013;28;20655;-70
2023/11/06 09:12:18;;;;;;;1.35;0.52;;;22.90;60.70;;;;;;5020768;28;20029;-74
2023/11/06 09:14:44;;;;;;;2.65;0.60;;;22.90;60.50;;;;;;5019495;28;20442;-70
2023/11/06 09:17:10;;;;;;;0.88;0.50;;;23.00;60.50;;;;;;5018736;28;20051;-71
2023/11/06 09:19:35;;;;;;;2.80;0.60;;;23.00;60.40;;;;;;5002865;28;20125;-71
2023/11/06 09:22:01;;;;;;;0.68;0.50;;;23.00;60.40;;;;;;5019292;28;20077;-72
2023/11/06 09:24:29;;;;;;;1.02;0.47;;;23.00;60.20;;;;;;5019805;28;20037;-71
2023/11/06 09:26:56;;;;;;;1.50;0.50;;;23.10;60.20;;;;;;5023532;28;20022;-71
2023/11/06 09:29:22;;;;;;;0.88;0.40;;;23.10;60.10;;;;;;5018859;28;20022;-72
2023/11/06 09:31:47;;;;;;;0.88;0.50;;;23.10;60.10;;;;;;5017604;28;20037;-73
2023/11/06 09:34:14;;;;;;;1.42;0.43;;;23.20;60.70;;;;;;5018855;28;20025;-75
2023/11/06 09:36:39;;;;;;;1.52;0.47;;;23.20;60.10;;;;;;5020303;28;20029;-72
2023/11/06 09:39:09;;;;;;;0.90;0.50;;;23.20;60.10;;;;;;5022112;28;20033;-72
2023/11/06 09:41:35;;;;;;;;;;;23.20;60.00;;;;;;5020480;28;20025;-73
2023/11/06 09:44:01;;;;;;;1.33;0.45;;;23.30;60.10;;;;;;5018613;28;19909;-72
2023/11/06 09:46:30;;;;;;;0.55;0.40;;;23.30;59.90;;;;;;5017821;28;20095;-72
2023/11/06 09:49:02;;;;;;;1.42;0.60;;;23.30;59.80;;;;;;5018095;28;20056;-76
2023/11/06 09:51:33;;;;;;;0.90;0.40;;;23.30;59.80;;;;;;5015280;28;20549;-70
2023/11/06 09:54:01;;;;;;;1.42;0.50;;;23.30;59.80;;;;;;5018751;28;20132;-70
2023/11/06 09:56:28;;;;;;;0.53;0.47;;;23.40;59.80;;;;;;5016538;28;20120;-69
2023/11/06 09:58:55;;;;;;;1.00;0.52;;;23.50;59.70;;;;;;5000731;28;20333;-69
2023/11/06 10:01:26;;;;;;;1.35;0.47;;;23.50;59.70;;;;;;5017902;28;20030;-72
2023/11/06 10:03:52;;;;;;;1.23;0.50;;;23.50;59.60;;;;;;5036390;28;20029;-69
2023/11/06 10:06:18;;;;;;;0.98;0.38;;;23.50;59.60;;;;;;5019633;28;20022;-71
2023/11/06 10:08:44;;;;;;;1.05;0.43;;;23.50;59.60;;;;;;5018842;28;20021;-70
2023/11/06 10:11:09;;;;;;;1.13;0.55;;;23.60;59.60;;;;;;5019725;28;20022;-70
2023/11/06 10:13:54;;;;;;;1.00;0.43;;;23.60;59.50;;;;;;5018822;28;20430;-70
2023/11/06 10:16:22;;;;;;;1.23;0.60;;;23.60;59.60;;;;;;5016120;28;20037;-71
2023/11/06 10:19:08;;;;;;;0.80;0.50;;;23.70;59.50;;;;;;4983007;28;20579;-69
2023/11/06 10:21:34;;;;;;;0.70;0.40;;;23.70;59.50;;;;;;5019207;28;20029;-75
2023/11/06 10:24:01;;;;;;;0.65;0.50;;;23.80;59.50;;;;;;5017443;28;20037;-73
2023/11/06 10:26:31;;;;;;;1.33;0.55;;;23.80;59.40;;;;;;5020049;28;20032;-74
2023/11/06 10:29:16;;;;;;;0.80;0.40;;;23.80;59.50;;;;;;5014889;28;20489;-74
2023/11/06 10:31:47;;;;;;;0.75;0.40;;;23.80;59.40;;;;;;5018798;28;20032;-74
2023/11/06 10:34:31;;;;;;;0.65;0.40;;;23.80;59.30;;;;;;5017542;28;20068;-74
2023/11/06 10:37:10;;;;;;;1.00;0.40;;;23.90;59.40;;;;;;5018023;28;20057;-75
2023/11/06 10:39:56;;;;;;;0.73;0.40;;;23.90;59.40;;;;;;5018675;28;20096;-73
2023/11/06 10:42:23;;;;;;;1.17;0.50;;;23.90;59.40;;;;;;4985020;28;20037;-74
2023/11/06 10:44:58;;;;;;;1.65;0.60;;;23.90;59.30;;;;;;5015571;28;20481;-71
2023/11/06 10:47:27;;;;;;;0.60;0.47;;;24.00;59.40;;;;;;5017846;28;20097;-73
2023/11/06 10:50:03;;;;;;;1.05;0.40;;;24.00;59.30;;;;;;5016603;28;20482;-73
2023/11/06 10:52:32;;;;;;;0.60;0.40;;;24.00;59.30;;;;;;5017378;28;20473;-73
2023/11/06 10:55:03;;;;;;;0.63;0.40;;;24.00;59.30;;;;;;4999228;28;20065;-75
2023/11/06 10:57:34;;;;;;;0.73;0.40;;;24.10;59.40;;;;;;5018044;28;20037;-74
2023/11/06 11:00:04;;;;;;;0.30;0.30;;;24.10;59.80;;;;;;5037178;28;20097;-76
2023/11/06 11:02:45;;;;;;;0.60;0.38;;;24.10;59.30;;;;;;5020062;28;20033;-74
2023/11/06 11:05:13;;;;;;;0.40;0.40;;;24.10;59.30;;;;;;5020414;28;20029;-73
2023/11/06 11:07:42;;;;;;;0.73;0.35;;;24.10;59.30;;;;;;5025202;28;20112;-73
2023/11/06 11:10:15;;;;;;;0.40;0.40;;;24.10;57.10;;;;;;5019812;28;20026;-73
2023/11/06 11:12:42;;;;;;;0.40;0.40;;;24.10;55.30;;;;;;5021252;28;20101;-72
2023/11/06 11:15:09;;;;;;;0.98;0.60;;;24.00;54.30;;;;;;5021908;28;20446;-72
2023/11/06 11:17:36;;;;;;;0.50;0.45;;;23.90;53.90;;;;;;5021136;28;20026;-73
2023/11/06 11:20:09;;;;;;;0.65;0.50;;;23.90;53.60;;;;;;5023715;28;20026;-73
2023/11/06 11:23:06;;;;;;;0.52;0.50;;;23.80;53.80;;;;;;5021372;28;20028;-73
2023/11/06 11:25:53;;;;;;;0.77;0.40;;;23.70;54.10;;;;;;5023012;28;20037;-73
2023/11/06 11:28:19;;;;;;;0.40;0.40;;;23.80;54.60;;;;;;5038139;28;20375;-72
2023/11/06 11:30:45;;;;;;;0.30;0.30;;;23.80;55.10;;;;;;5021267;28;20064;-71
2023/11/06 11:33:11;;;;;;;0.47;0.30;;;23.80;55.30;;;;;;5006832;28;20109;-73
2023/11/06 11:35:36;;;;;;;0.52;0.30;;;23.80;55.60;;;;;;5021510;28;20025;-72
2023/11/06 11:38:03;;;;;;;0.30;0.30;;;23.80;55.70;;;;;;5023497;28;20030;-72
2023/11/06 11:40:40;;;;;;;1.33;0.50;;;23.80;55.70;;;;;;5020032;28;20026;-74
2023/11/06 11:43:25;;;;;;;0.45;0.35;;;23.80;56.00;;;;;;5021706;28;20041;-72
2023/11/06 11:45:51;;;;;;;0.60;0.40;;;23.80;56.00;;;;;;5036251;28;20343;-72
2023/11/06 11:48:18;;;;;;;0.40;0.40;;;23.80;56.20;;;;;;5021560;28;20036;-69
2023/11/06 11:50:44;;;;;;;1.70;0.40;;;23.90;56.40;;;;;;5005834;28;20025;-78
2023/11/06 11:53:32;;;;;;;0.98;0.43;;;23.80;56.40;;;;;;5022593;28;20025;-70
2023/11/06 11:55:58;;;;;;;0.75;0.40;;;23.80;54.10;;;;;;5018352;28;20120;-71
2023/11/06 11:58:24;;;;;;;0.65;0.50;;;23.80;54.00;;;;;;5019873;28;20042;-71
2023/11/06 12:00:54;;;;;;;1.52;0.50;;;23.80;53.70;;;;;;5021129;28;20052;-69
2023/11/06 12:03:24;;;;;;;1.05;0.50;;;23.70;53.20;;;;;;5004250;28;20495;-71
2023/11/06 12:05:57;;;;;;;0.47;0.40;;;23.70;53.40;;;;;;5021647;28;20116;-70
2023/11/06 12:08:24;;;;;;;0.75;0.50;;;23.70;53.80;;;;;;5019005;28;20025;-69
2023/11/06 12:10:52;;;;;;;0.40;0.40;;;23.70;54.20;;;;;;5021667;28;20048;-72
2023/11/06 12:13:25;;;;;;;0.40;0.40;;;23.70;54.40;;;;;;5022752;28;20377;-74
2023/11/06 12:15:52;;;;;;;0.30;0.30;;;23.70;55.30;;;;;;5020420;28;20489;-72
2023/11/06 12:18:21;;;;;;;0.57;0.30;;;23.70;55.00;;;;;;5017295;28;20025;-70
2023/11/06 12:20:48;;;;;;;0.30;0.30;;;23.70;55.20;;;;;;5022605;28;20022;-72
2023/11/06 12:23:14;;;;;;;0.52;0.40;;;23.80;55.30;;;;;;5020612;28;20500;-70
2023/11/06 12:25:40;;;;;;;0.63;0.40;;;23.80;55.40;;;;;;5001913;28;20036;-72
2023/11/06 12:28:08;;;;;;;0.57;0.40;;;23.80;55.40;;;;;;5017917;28;20030;-71
2023/11/06 12:30:34;;;;;;;0.30;0.30;;;23.80;55.60;;;;;;5018733;28;20057;-71
2023/11/06 12:33:17;;;;;;;0.45;0.32;;;23.80;55.70;;;;;;5018942;28;20523;-72
2023/11/06 12:35:46;;;;;;;0.30;0.30;;;23.80;55.90;;;;;;5021577;28;20033;-73
2023/11/06 12:38:12;;;;;;;;;;;23.80;56.00;;;;;;5018451;28;20029;-70
2023/11/06 12:40:45;;;;;;;0.50;0.35;;;23.80;56.10;;;;;;5018994;28;19945;-68
2023/11/06 12:43:13;;;;;;;0.40;0.40;;;23.90;56.00;;;;;;5020278;28;20033;-72
2023/11/06 12:45:40;;;;;;;0.25;0.25;;;23.90;56.10;;;;;;5022804;28;20030;-75
2023/11/06 12:48:28;;;;;;;0.50;0.47;;;23.90;56.10;;;;;;5018977;28;20033;-74